createdAt,value
2022-11-18T00:03:40.039Z,10.30
2022-11-18T00:09:31.567Z,10.48
2022-11-18T00:14:54.417Z,10.32
2022-11-18T00:20:10.179Z,10.27
2022-11-18T00:31:12.001Z,11.88
2022-11-18T00:36:42.023Z,10.25
2022-11-18T00:42:33.620Z,9.55
2022-11-18T00:49:03.136Z,10.43
2022-11-18T00:54:40.113Z,10.80
2022-11-18T01:00:23.554Z,12.07
2022-11-18T01:05:58.665Z,10.65
2022-11-18T01:17:48.821Z,10.90
2022-11-18T01:23:57.301Z,10.07
2022-11-18T01:29:43.110Z,9.80
2022-11-18T01:35:35.388Z,9.88
2022-11-18T01:41:04.386Z,10.60
2022-11-18T01:46:38.742Z,9.40
2022-11-18T02:03:14.250Z,7.93
2022-11-18T02:15:25.613Z,9.05
2022-11-18T02:21:10.914Z,9.68
2022-11-18T02:27:14.132Z,8.98
2022-11-18T02:39:12.226Z,11.43
2022-11-18T02:50:35.347Z,9.98
2022-11-18T02:56:13.074Z,10.40
2022-11-18T03:02:15.645Z,8.95
2022-11-18T03:08:13.153Z,9.65
2022-11-18T03:14:27.523Z,10.95
2022-11-18T03:20:38.105Z,9.75
2022-11-18T03:26:47.080Z,9.95
2022-11-18T03:32:37.076Z,10.45
2022-11-18T03:38:16.793Z,8.50
2022-11-18T03:44:14.049Z,9.93
2022-11-18T03:50:13.834Z,8.73
2022-11-18T03:55:43.745Z,7.88
2022-11-18T04:01:12.064Z,6.88
2022-11-18T04:06:54.411Z,7.55
2022-11-18T04:12:47.721Z,7.30
2022-11-18T04:18:44.326Z,7.75
2022-11-18T04:24:30.423Z,7.88
2022-11-18T04:42:19.412Z,7.78
2022-11-18T04:48:24.939Z,6.55
2022-11-18T04:53:59.147Z,8.20
2022-11-18T05:00:05.669Z,6.93
2022-11-18T05:11:46.311Z,8.95
2022-11-18T05:18:13.712Z,8.00
2022-11-18T05:24:17.983Z,8.90
2022-11-18T05:29:53.209Z,8.68
2022-11-18T05:43:12.838Z,8.25
2022-11-18T05:49:34.105Z,6.53
2022-11-18T05:56:00.928Z,8.98
2022-11-18T06:02:10.953Z,8.23
2022-11-18T06:08:14.019Z,8.80
2022-11-18T06:13:58.281Z,8.48
2022-11-18T06:19:12.279Z,8.63
2022-11-18T06:24:34.807Z,9.15
2022-11-18T06:30:21.337Z,8.35
2022-11-18T06:36:51.437Z,11.40
2022-11-18T07:04:29.745Z,10.90
2022-11-18T07:10:14.907Z,8.98
2022-11-18T07:15:36.967Z,9.98
2022-11-18T07:27:21.905Z,9.65
2022-11-18T07:32:52.117Z,9.18
2022-11-18T07:38:06.383Z,10.18
2022-11-18T07:43:15.872Z,11.55
2022-11-18T07:48:23.340Z,10.45
2022-11-18T07:53:32.355Z,10.63
2022-11-18T07:58:41.550Z,10.93
2022-11-18T08:03:49.752Z,11.75
2022-11-18T08:08:54.243Z,11.33
2022-11-18T08:13:59.963Z,11.00
2022-11-18T08:24:10.865Z,9.57
2022-11-18T08:29:21.833Z,9.77
2022-11-18T08:34:29.138Z,11.18
2022-11-18T08:39:33.791Z,10.73
2022-11-18T08:44:39.527Z,11.25
2022-11-18T08:49:44.200Z,11.15
2022-11-18T08:54:48.854Z,9.70
2022-11-18T09:00:18.480Z,10.18
2022-11-18T09:05:28.592Z,10.45
2022-11-18T09:30:18.299Z,9.15
2022-11-18T09:36:31.399Z,7.40
2022-11-18T09:43:03.420Z,7.00
2022-11-18T09:48:50.969Z,8.45
2022-11-18T09:54:57.651Z,7.45
2022-11-18T10:00:36.953Z,7.03
2022-11-18T10:06:17.963Z,6.53
2022-11-18T10:11:57.217Z,6.82
2022-11-18T10:17:41.817Z,6.50
2022-11-18T10:23:19.603Z,6.68
2022-11-18T10:28:42.723Z,6.72
2022-11-18T10:34:04.003Z,6.65
2022-11-18T10:40:31.090Z,6.70
2022-11-18T10:46:09.538Z,8.07
2022-11-18T10:51:25.110Z,7.43
2022-11-18T10:56:48.847Z,6.43
2022-11-18T11:02:16.536Z,6.15
2022-11-18T11:07:27.787Z,5.97
2022-11-18T11:12:34.795Z,6.40
2022-11-18T11:17:47.288Z,5.30
2022-11-18T11:22:52.027Z,5.88
2022-11-18T11:28:17.172Z,5.28
2022-11-18T11:33:42.317Z,5.10
2022-11-18T11:39:04.827Z,5.43
2022-11-18T11:44:31.568Z,5.82
2022-11-18T11:49:51.290Z,5.65
2022-11-18T11:55:08.263Z,6.75
2022-11-18T12:00:16.201Z,6.65
2022-11-18T12:05:27.911Z,7.00
2022-11-18T12:10:44.356Z,7.82
2022-11-18T12:16:05.435Z,6.85
2022-11-18T12:21:50.020Z,6.30
2022-11-18T12:26:56.579Z,6.57
2022-11-18T12:32:05.130Z,6.47
2022-11-18T12:37:48.351Z,5.55
2022-11-18T12:43:10.695Z,5.68
2022-11-18T12:48:40.131Z,5.37
2022-11-18T12:53:47.703Z,6.28
2022-11-18T12:58:53.515Z,6.13
2022-11-18T13:04:08.944Z,7.10
2022-11-18T13:09:18.996Z,8.23
2022-11-18T13:14:46.591Z,6.22
2022-11-18T13:19:58.976Z,6.50
2022-11-18T13:25:23.229Z,6.95
2022-11-18T13:30:32.114Z,6.80
2022-11-18T13:35:42.234Z,7.20
2022-11-18T13:41:11.903Z,7.07
2022-11-18T13:46:24.181Z,8.55
2022-11-18T13:51:31.990Z,8.05
2022-11-18T13:56:41.465Z,7.95
2022-11-18T14:01:48.627Z,7.72
2022-11-18T14:06:56.447Z,8.93
2022-11-18T14:12:24.082Z,9.68
2022-11-18T14:17:33.130Z,7.65
2022-11-18T14:22:45.083Z,8.02
2022-11-18T14:28:14.426Z,8.40
2022-11-18T14:33:25.955Z,7.25
2022-11-18T14:39:04.033Z,8.90
2022-11-18T14:44:25.285Z,8.63
2022-11-18T14:49:34.128Z,7.72
2022-11-18T14:54:41.551Z,9.90
2022-11-18T14:59:47.240Z,8.68
2022-11-18T15:04:53.898Z,11.93
2022-11-18T15:09:59.161Z,8.77
2022-11-18T15:15:22.417Z,9.32
2022-11-18T15:20:27.935Z,9.40
2022-11-18T15:30:39.380Z,8.57
2022-11-18T15:35:45.360Z,9.57
2022-11-18T15:40:49.815Z,9.60
2022-11-18T15:45:58.722Z,9.77
2022-11-18T15:51:10.461Z,10.27
2022-11-18T15:56:17.895Z,11.10
2022-11-18T16:01:23.554Z,10.75
2022-11-18T16:06:29.676Z,10.20
2022-11-18T16:11:54.635Z,11.70
2022-11-18T16:16:59.342Z,11.70
2022-11-18T16:22:05.365Z,9.13
2022-11-18T16:27:10.064Z,10.18
2022-11-18T16:32:15.541Z,9.80
2022-11-18T16:37:22.583Z,11.75
2022-11-18T16:42:27.199Z,9.57
2022-11-18T16:47:34.460Z,10.77
2022-11-18T16:52:40.954Z,13.05
2022-11-18T16:57:45.246Z,12.93
2022-11-18T17:02:50.392Z,11.95
2022-11-18T17:07:56.204Z,11.97
2022-11-18T17:13:03.255Z,12.50
2022-11-18T17:18:07.939Z,12.25
2022-11-18T17:23:13.910Z,10.20
2022-11-18T17:28:18.360Z,11.07
2022-11-18T17:33:22.771Z,11.40
2022-11-18T17:38:31.672Z,13.27
2022-11-18T17:43:36.378Z,12.40
2022-11-18T17:48:40.499Z,15.73
2022-11-18T17:53:46.218Z,19.52
2022-11-18T17:58:51.328Z,23.67
2022-11-18T18:03:55.770Z,18.10
2022-11-18T18:09:01.559Z,14.98
2022-11-18T18:14:15.742Z,15.95
2022-11-18T18:19:21.599Z,14.70
2022-11-18T18:24:27.393Z,13.48
2022-11-18T18:29:32.012Z,14.13
2022-11-18T18:34:37.978Z,13.10
2022-11-18T18:45:11.633Z,13.23
2022-11-18T18:50:17.064Z,13.70
2022-11-18T18:55:49.162Z,14.00
2022-11-18T19:01:08.259Z,14.10
2022-11-18T19:06:49.140Z,17.15
2022-11-18T19:12:05.931Z,17.88
2022-11-18T19:17:12.427Z,19.17
2022-11-18T19:22:18.025Z,18.30
2022-11-18T19:27:24.479Z,17.90
2022-11-18T19:32:29.117Z,20.75
2022-11-18T19:37:33.767Z,18.20
2022-11-18T19:42:40.949Z,21.03
2022-11-18T19:47:45.939Z,22.80
2022-11-18T19:52:50.281Z,22.50
2022-11-18T19:57:55.896Z,25.83
2022-11-18T20:08:04.077Z,24.38
2022-11-18T20:13:09.991Z,22.42
2022-11-18T20:18:17.269Z,24.65
2022-11-18T20:23:21.978Z,22.50
2022-11-18T20:28:27.584Z,24.13
2022-11-18T20:33:35.227Z,23.10
2022-11-18T20:38:40.076Z,22.77
2022-11-18T20:43:48.834Z,27.17
2022-11-18T20:48:54.308Z,20.65
2022-11-18T20:54:00.185Z,22.90
2022-11-18T20:59:06.994Z,21.27
2022-11-18T21:04:12.358Z,22.27
2022-11-18T21:09:17.991Z,22.30
2022-11-18T21:14:25.847Z,25.23
2022-11-18T21:19:33.089Z,24.65
2022-11-18T21:24:38.037Z,21.52
2022-11-18T21:29:46.475Z,21.63
2022-11-18T21:34:50.992Z,22.67
2022-11-18T21:39:55.422Z,21.35
2022-11-18T21:45:01.334Z,20.63
2022-11-18T21:50:09.385Z,21.95
2022-11-18T21:55:13.871Z,25.45
2022-11-18T22:00:22.624Z,22.73
2022-11-18T22:05:28.386Z,24.88
2022-11-18T22:10:32.773Z,23.15
2022-11-18T22:15:38.944Z,26.35
2022-11-18T22:20:43.645Z,22.02
2022-11-18T22:25:56.763Z,21.40
2022-11-18T22:31:05.274Z,22.52
2022-11-18T22:36:13.089Z,26.70
2022-11-18T22:41:42.992Z,20.98
2022-11-18T22:46:50.527Z,24.25
2022-11-18T22:51:55.404Z,22.77
2022-11-18T22:57:02.812Z,27.67
2022-11-18T23:02:08.950Z,23.73
2022-11-18T23:07:16.025Z,23.80
2022-11-18T23:12:43.583Z,25.10
2022-11-18T23:17:53.858Z,25.08
2022-11-18T23:23:03.495Z,24.13
2022-11-18T23:28:08.266Z,30.33
2022-11-18T23:33:17.698Z,27.13
2022-11-18T23:38:22.668Z,29.73
2022-11-18T23:43:28.472Z,30.47
2022-11-18T23:48:37.851Z,30.92
2022-11-18T23:53:43.551Z,29.20
2022-11-18T23:58:52.347Z,32.35
